createdAt,value
2018-04-20T00:00:48.292Z,16.25
2018-04-20T00:03:15.614Z,15.77
2018-04-20T00:05:42.166Z,15.50
2018-04-20T00:08:10.056Z,15.45
2018-04-20T00:10:36.613Z,17.10
2018-04-20T00:13:03.109Z,15.80
2018-04-20T00:15:29.625Z,17.00
2018-04-20T00:17:56.896Z,16.20
2018-04-20T00:20:24.164Z,15.43
2018-04-20T00:22:51.554Z,14.68
2018-04-20T00:25:18.217Z,15.70
2018-04-20T00:27:44.707Z,15.85
2018-04-20T00:30:11.332Z,15.98
2018-04-20T00:32:37.890Z,16.30
2018-04-20T00:35:05.166Z,15.68
2018-04-20T00:37:31.721Z,16.00
2018-04-20T00:39:58.236Z,18.52
2018-04-20T00:42:24.749Z,16.83
2018-04-20T00:44:51.297Z,17.10
2018-04-20T00:47:17.802Z,18.42
2018-04-20T00:49:44.319Z,16.73
2018-04-20T00:52:10.871Z,18.67
2018-04-20T00:54:37.428Z,19.77
2018-04-20T00:57:03.937Z,18.90
2018-04-20T00:59:30.544Z,19.42
2018-04-20T01:01:57.819Z,19.83
2018-04-20T01:04:24.307Z,18.62
2018-04-20T01:06:50.936Z,18.23
2018-04-20T01:09:18.518Z,19.10
2018-04-20T01:11:45.792Z,19.05
2018-04-20T01:14:12.322Z,18.50
2018-04-20T01:16:39.629Z,20.10
2018-04-20T01:19:06.288Z,17.92
2018-04-20T01:21:32.948Z,19.25
2018-04-20T01:23:59.504Z,18.12
2018-04-20T01:26:26.063Z,20.60
2018-04-20T01:28:53.341Z,18.85
2018-04-20T01:31:19.897Z,18.55
2018-04-20T01:33:46.439Z,18.67
2018-04-20T01:36:13.727Z,20.67
2018-04-20T01:38:41.109Z,19.40
2018-04-20T01:41:07.771Z,18.08
2018-04-20T01:43:34.776Z,18.95
2018-04-20T01:46:01.272Z,21.42
2018-04-20T01:48:28.566Z,19.87
2018-04-20T01:50:55.123Z,18.95
2018-04-20T01:53:22.502Z,19.10
2018-04-20T01:55:49.059Z,19.58
2018-04-20T01:58:16.359Z,20.02
2018-04-20T02:00:42.996Z,19.20
2018-04-20T02:03:09.554Z,21.27
2018-04-20T02:05:36.111Z,21.58
2018-04-20T02:08:03.490Z,20.77
2018-04-20T02:10:30.065Z,19.08
2018-04-20T02:12:56.614Z,20.45
2018-04-20T02:15:23.118Z,20.95
2018-04-20T02:17:49.724Z,19.67
2018-04-20T02:20:16.204Z,21.05
2018-04-20T02:22:42.696Z,22.20
2018-04-20T02:25:09.298Z,20.75
2018-04-20T02:27:35.856Z,20.55
2018-04-20T02:30:02.519Z,25.37
2018-04-20T02:32:29.078Z,23.83
2018-04-20T02:34:57.126Z,23.02
2018-04-20T02:37:23.729Z,23.48
2018-04-20T02:39:50.237Z,22.37
2018-04-20T02:42:16.732Z,22.35
2018-04-20T02:44:43.405Z,23.98
2018-04-20T02:47:09.963Z,23.23
2018-04-20T02:49:37.220Z,24.12
2018-04-20T02:52:04.510Z,26.35
2018-04-20T02:54:31.889Z,23.35
2018-04-20T02:56:58.448Z,26.17
2018-04-20T02:59:25.005Z,24.00
2018-04-20T03:01:51.505Z,24.40
2018-04-20T03:04:18.122Z,27.23
2018-04-20T03:06:45.498Z,23.73
2018-04-20T03:09:12.757Z,23.58
2018-04-20T03:11:40.048Z,26.95
2018-04-20T03:14:06.605Z,25.60
2018-04-20T03:16:33.164Z,26.35
2018-04-20T03:19:00.441Z,24.87
2018-04-20T03:21:26.923Z,22.70
2018-04-20T03:23:53.661Z,25.00
2018-04-20T03:26:20.217Z,26.80
2018-04-20T03:28:46.754Z,25.90
2018-04-20T03:31:13.336Z,23.83
2018-04-20T03:33:39.999Z,29.27
2018-04-20T03:36:06.553Z,26.77
2018-04-20T03:38:33.830Z,24.63
2018-04-20T03:41:00.388Z,26.35
2018-04-20T03:43:27.763Z,25.75
2018-04-20T03:45:55.040Z,30.98
2018-04-20T03:48:21.597Z,25.55
2018-04-20T03:50:48.260Z,26.85
2018-04-20T03:53:14.918Z,26.77
2018-04-20T03:55:42.300Z,28.17
2018-04-20T03:58:08.920Z,25.05
2018-04-20T04:00:36.141Z,27.35
2018-04-20T04:03:02.729Z,26.85
2018-04-20T04:05:29.256Z,27.23
2018-04-20T04:07:55.767Z,27.70
2018-04-20T04:10:22.364Z,25.17
2018-04-20T04:12:48.922Z,30.92
2018-04-20T04:15:15.480Z,26.23
2018-04-20T04:17:54.312Z,24.83
2018-04-20T04:20:33.413Z,24.92
2018-04-20T04:23:12.076Z,24.90
2018-04-20T04:25:51.009Z,24.08
2018-04-20T04:28:24.698Z,25.50
2018-04-20T04:30:51.285Z,23.50
2018-04-20T04:33:18.561Z,24.55
2018-04-20T04:35:45.119Z,23.45
2018-04-20T04:38:11.681Z,21.35
2018-04-20T04:40:38.190Z,20.33
2018-04-20T04:43:04.759Z,21.50
2018-04-20T04:45:31.354Z,23.38
2018-04-20T04:47:59.206Z,24.02
2018-04-20T04:50:25.802Z,19.30
2018-04-20T04:52:52.301Z,19.55
2018-04-20T04:55:18.819Z,19.35
2018-04-20T04:57:45.370Z,20.92
2018-04-20T05:00:11.842Z,20.40
2018-04-20T05:02:38.283Z,22.10
2018-04-20T05:05:05.514Z,19.08
2018-04-20T05:07:31.993Z,18.95
2018-04-20T05:09:58.476Z,18.12
2018-04-20T05:12:24.972Z,18.48
2018-04-20T05:14:51.679Z,15.45
2018-04-20T05:17:18.869Z,15.30
2018-04-20T05:19:45.425Z,14.20
2018-04-20T05:22:11.887Z,15.35
2018-04-20T05:24:38.369Z,13.80
2018-04-20T05:27:04.870Z,14.52
2018-04-20T05:29:32.095Z,14.17
2018-04-20T05:31:58.627Z,16.40
2018-04-20T05:34:25.101Z,15.63
2018-04-20T05:36:51.577Z,13.10
2018-04-20T05:39:18.093Z,13.53
2018-04-20T05:41:45.370Z,12.93
2018-04-20T05:44:11.825Z,17.20
2018-04-20T05:46:39.639Z,13.00
2018-04-20T05:49:06.897Z,13.10
2018-04-20T05:51:33.367Z,14.90
2018-04-20T05:53:59.801Z,12.85
2018-04-20T05:56:26.975Z,12.40
2018-04-20T05:58:53.527Z,13.53
2018-04-20T06:01:20.759Z,12.83
2018-04-20T06:03:47.201Z,12.20
2018-04-20T06:06:14.143Z,12.03
2018-04-20T06:08:40.621Z,13.90
2018-04-20T06:11:07.099Z,12.30
2018-04-20T06:13:33.610Z,12.98
2018-04-20T06:16:00.115Z,12.20
2018-04-20T06:18:26.624Z,12.05
2018-04-20T06:20:53.107Z,12.70
2018-04-20T06:23:19.608Z,14.27
2018-04-20T06:25:46.872Z,12.83
2018-04-20T06:28:13.458Z,12.90
2018-04-20T06:30:40.611Z,11.40
2018-04-20T06:33:08.604Z,10.60
2018-04-20T06:35:35.894Z,12.83
2018-04-20T06:38:03.174Z,11.80
2018-04-20T06:40:29.591Z,11.10
2018-04-20T06:42:56.010Z,12.30
2018-04-20T06:45:22.452Z,12.30
2018-04-20T06:47:48.853Z,12.07
2018-04-20T06:50:15.279Z,12.10
2018-04-20T06:52:41.689Z,13.30
2018-04-20T06:55:09.491Z,12.83
2018-04-20T06:57:36.674Z,11.43
2018-04-20T07:00:03.237Z,12.23
2018-04-20T07:02:29.681Z,12.15
2018-04-20T07:04:56.113Z,11.77
2018-04-20T07:07:23.289Z,12.23
2018-04-20T07:09:50.473Z,11.90
2018-04-20T07:12:17.623Z,12.57
2018-04-20T07:14:44.065Z,12.60
2018-04-20T07:17:10.717Z,11.27
2018-04-20T07:19:37.127Z,12.23
2018-04-20T07:22:03.542Z,12.20
2018-04-20T07:24:30.702Z,11.87
2018-04-20T07:26:57.136Z,11.97
2018-04-20T07:29:23.551Z,11.80
2018-04-20T07:31:50.718Z,14.67
2018-04-20T07:34:18.004Z,11.97
2018-04-20T07:36:45.190Z,12.57
2018-04-20T07:39:11.608Z,10.57
2018-04-20T07:41:38.849Z,11.57
2018-04-20T07:44:05.301Z,11.30
2018-04-20T07:46:31.821Z,13.73
2018-04-20T07:48:59.095Z,11.37
2018-04-20T07:51:26.241Z,12.00
2018-04-20T07:53:53.643Z,10.60
2018-04-20T07:56:20.846Z,11.20
2018-04-20T07:58:47.266Z,10.37
2018-04-20T08:01:14.520Z,10.23
2018-04-20T08:03:41.699Z,9.73
2018-04-20T08:06:09.411Z,10.13
2018-04-20T08:08:35.852Z,10.07
2018-04-20T08:11:03.030Z,7.67
2018-04-20T08:13:30.204Z,11.73
2018-04-20T08:15:57.376Z,7.80
2018-04-20T08:18:24.650Z,7.30
2018-04-20T08:20:52.504Z,7.63
2018-04-20T08:23:18.964Z,8.60
2018-04-20T08:25:46.984Z,7.37
2018-04-20T08:28:14.195Z,7.62
2018-04-20T08:30:40.650Z,7.33
2018-04-20T08:33:07.070Z,6.83
2018-04-20T08:35:34.258Z,7.57
2018-04-20T08:38:00.678Z,7.60
2018-04-20T08:40:27.118Z,6.97
2018-04-20T08:42:53.522Z,8.17
2018-04-20T08:45:19.957Z,7.90
2018-04-20T08:47:47.145Z,7.10
2018-04-20T08:50:13.564Z,8.70
2018-04-20T08:52:40.020Z,10.87
2018-04-20T08:55:06.463Z,7.63
2018-04-20T08:57:32.887Z,9.40
2018-04-20T08:59:59.330Z,9.70
2018-04-20T09:02:25.760Z,7.10
2018-04-20T09:04:52.941Z,7.90
2018-04-20T09:07:20.141Z,6.93
2018-04-20T09:09:46.677Z,9.67
2018-04-20T09:12:13.818Z,10.30
2018-04-20T09:14:40.251Z,9.87
2018-04-20T09:17:06.687Z,8.33
2018-04-20T09:19:33.121Z,8.30
2018-04-20T09:21:59.539Z,7.40
2018-04-20T09:24:26.779Z,9.50
2018-04-20T09:26:53.406Z,7.90
2018-04-20T09:29:19.844Z,9.73
2018-04-20T09:31:46.900Z,8.13
2018-04-20T09:34:13.314Z,8.17
2018-04-20T09:36:39.957Z,7.33
2018-04-20T09:39:06.991Z,8.30
2018-04-20T09:41:33.420Z,8.43
2018-04-20T09:44:00.355Z,10.30
2018-04-20T09:46:26.752Z,19.67
2018-04-20T09:48:53.868Z,7.93
2018-04-20T09:51:20.332Z,7.90
2018-04-20T09:53:46.756Z,7.47
2018-04-20T09:56:13.893Z,8.97
2018-04-20T09:58:40.404Z,8.13
2018-04-20T10:01:09.507Z,7.80
2018-04-20T10:03:42.757Z,6.83
2018-04-20T10:06:09.200Z,7.17
2018-04-20T10:08:35.593Z,6.40
2018-04-20T10:11:02.094Z,10.43
2018-04-20T10:13:29.797Z,6.80
2018-04-20T10:15:56.274Z,8.30
2018-04-20T10:18:22.746Z,7.07
2018-04-20T10:20:49.139Z,7.10
2018-04-20T10:23:16.280Z,10.73
2018-04-20T10:25:42.705Z,7.50
2018-04-20T10:28:09.165Z,7.03
2018-04-20T10:30:35.790Z,8.70
2018-04-20T10:33:02.978Z,7.50
2018-04-20T10:35:29.522Z,8.07
2018-04-20T10:37:56.731Z,7.73
2018-04-20T10:40:23.151Z,6.90
2018-04-20T10:42:49.577Z,7.20
2018-04-20T10:45:16.772Z,7.83
2018-04-20T10:47:43.942Z,7.47
2018-04-20T10:50:10.417Z,7.90
2018-04-20T10:52:36.842Z,7.30
2018-04-20T10:55:03.331Z,7.07
2018-04-20T10:57:29.879Z,7.83
2018-04-20T10:59:57.107Z,6.97
2018-04-20T11:02:23.495Z,11.33
2018-04-20T11:04:50.779Z,6.73
2018-04-20T11:07:17.974Z,7.37
2018-04-20T11:09:44.419Z,7.67
2018-04-20T11:12:10.883Z,7.30
2018-04-20T11:14:37.348Z,7.20
2018-04-20T11:17:03.796Z,8.00
2018-04-20T11:19:30.292Z,8.03
2018-04-20T11:21:56.721Z,7.30
2018-04-20T11:24:23.196Z,7.47
2018-04-20T11:26:49.676Z,8.67
2018-04-20T11:29:16.095Z,7.80
2018-04-20T11:31:42.554Z,7.47
2018-04-20T11:34:09.073Z,7.70
2018-04-20T11:36:36.347Z,7.17
2018-04-20T11:39:03.006Z,6.83
2018-04-20T11:41:30.306Z,9.13
2018-04-20T11:43:56.765Z,8.00
2018-04-20T11:46:23.299Z,7.70
2018-04-20T11:48:49.751Z,7.00
2018-04-20T11:51:16.927Z,9.63
2018-04-20T11:53:44.256Z,7.80
2018-04-20T11:56:10.862Z,6.90
2018-04-20T11:58:38.696Z,7.53
2018-04-20T12:01:05.123Z,9.20
2018-04-20T12:03:31.577Z,8.07
2018-04-20T12:05:58.105Z,7.40
2018-04-20T12:08:25.275Z,7.30
2018-04-20T12:10:52.461Z,6.87
2018-04-20T12:13:19.637Z,10.30
2018-04-20T12:15:46.737Z,8.03
2018-04-20T12:18:13.165Z,8.53
2018-04-20T12:20:40.437Z,7.40
2018-04-20T12:23:07.613Z,10.63
2018-04-20T12:25:34.094Z,8.03
2018-04-20T12:28:00.540Z,7.37
2018-04-20T12:30:27.000Z,9.33
2018-04-20T12:32:53.433Z,6.20
2018-04-20T12:35:20.849Z,6.50
2018-04-20T12:37:47.277Z,6.63
2018-04-20T12:40:14.353Z,6.10
2018-04-20T12:42:40.828Z,5.80
2018-04-20T12:45:07.315Z,10.33
2018-04-20T12:47:35.363Z,8.10
2018-04-20T12:50:02.003Z,6.23
2018-04-20T12:52:29.186Z,9.57
2018-04-20T12:54:55.734Z,11.33
2018-04-20T12:57:23.118Z,5.80
2018-04-20T12:59:49.671Z,7.80
2018-04-20T13:02:16.944Z,19.67
2018-04-20T13:04:44.182Z,6.20
2018-04-20T13:07:12.139Z,6.20
2018-04-20T13:09:38.572Z,6.67
2018-04-20T13:12:05.016Z,7.27
2018-04-20T13:14:32.293Z,6.17
2018-04-20T13:16:59.569Z,7.33
2018-04-20T13:19:26.765Z,8.33
2018-04-20T13:21:53.301Z,6.63
2018-04-20T13:24:21.608Z,10.47
2018-04-20T13:26:48.159Z,5.93
2018-04-20T13:29:14.796Z,5.97
2018-04-20T13:31:41.966Z,6.53
2018-04-20T13:34:09.264Z,7.23
2018-04-20T13:36:36.538Z,6.20
2018-04-20T13:39:03.636Z,8.13
2018-04-20T13:41:30.165Z,14.10
2018-04-20T13:43:57.443Z,7.43
2018-04-20T13:46:23.875Z,7.10
2018-04-20T13:48:50.400Z,6.20
2018-04-20T13:51:16.828Z,8.23
2018-04-20T13:53:43.279Z,6.67
2018-04-20T13:56:09.822Z,7.00
2018-04-20T13:58:37.097Z,7.13
2018-04-20T14:01:04.310Z,6.67
2018-04-20T14:03:30.935Z,6.60
2018-04-20T14:05:57.492Z,7.00
2018-04-20T14:08:24.045Z,8.77
2018-04-20T14:10:51.238Z,8.60
2018-04-20T14:13:17.780Z,7.93
2018-04-20T14:15:45.054Z,6.87
2018-04-20T14:18:12.330Z,7.90
2018-04-20T14:20:39.538Z,9.10
2018-04-20T14:23:06.138Z,11.57
2018-04-20T14:25:32.722Z,7.33
2018-04-20T14:28:00.199Z,7.50
2018-04-20T14:30:27.343Z,6.87
2018-04-20T14:32:54.562Z,8.23
2018-04-20T14:35:21.019Z,6.90
2018-04-20T14:37:47.471Z,7.63
2018-04-20T14:40:14.018Z,14.90
2018-04-20T14:42:40.469Z,7.27
2018-04-20T14:45:07.750Z,6.73
2018-04-20T14:47:34.305Z,8.53
2018-04-20T14:50:00.863Z,8.40
2018-04-20T14:52:27.353Z,6.70
2018-04-20T14:54:53.811Z,8.27
2018-04-20T14:57:20.282Z,7.70
2018-04-20T14:59:46.726Z,7.50
2018-04-20T15:02:13.189Z,7.70
2018-04-20T15:04:39.702Z,7.17
2018-04-20T15:07:06.264Z,6.90
2018-04-20T15:09:32.676Z,7.07
2018-04-20T15:11:59.108Z,6.83
2018-04-20T15:14:25.672Z,8.80
2018-04-20T15:16:52.093Z,7.20
2018-04-20T15:19:18.526Z,7.30
2018-04-20T15:21:46.279Z,7.63
2018-04-20T15:24:12.755Z,6.50
2018-04-20T15:26:39.186Z,8.50
2018-04-20T15:29:05.609Z,10.37
2018-04-20T15:31:32.154Z,8.50
2018-04-20T15:33:59.326Z,7.53
2018-04-20T15:36:26.525Z,7.23
2018-04-20T15:38:53.059Z,9.00
2018-04-20T15:41:19.497Z,8.23
2018-04-20T15:43:46.735Z,7.77
2018-04-20T15:46:13.195Z,6.47
2018-04-20T15:48:39.803Z,6.53
2018-04-20T15:51:06.272Z,7.40
2018-04-20T15:53:32.716Z,6.93
2018-04-20T15:55:59.895Z,7.43
2018-04-20T15:58:27.097Z,6.80
2018-04-20T16:00:53.620Z,7.70
2018-04-20T16:03:20.823Z,8.67
2018-04-20T16:05:47.226Z,7.07
2018-04-20T16:08:14.398Z,9.93
2018-04-20T16:10:40.867Z,7.60
2018-04-20T16:13:08.056Z,6.40
2018-04-20T16:15:36.875Z,7.10
2018-04-20T16:18:03.398Z,8.50
2018-04-20T16:20:30.692Z,8.40
2018-04-20T16:22:57.133Z,7.87
2018-04-20T16:25:24.337Z,6.30
2018-04-20T16:27:50.801Z,9.83
2018-04-20T16:30:17.260Z,7.23
2018-04-20T16:32:43.732Z,6.40
2018-04-20T16:35:10.216Z,5.77
2018-04-20T16:37:36.689Z,6.30
2018-04-20T16:40:03.864Z,6.57
2018-04-20T16:42:31.148Z,5.87
2018-04-20T16:44:58.306Z,6.30
2018-04-20T16:47:25.538Z,7.10
2018-04-20T16:49:52.053Z,7.30
2018-04-20T16:52:18.609Z,6.67
2018-04-20T16:54:45.168Z,7.77
2018-04-20T16:57:12.552Z,9.20
2018-04-20T16:59:39.009Z,7.07
2018-04-20T17:02:05.468Z,6.50
2018-04-20T17:04:31.872Z,7.43
2018-04-20T17:06:58.280Z,6.63
2018-04-20T17:09:24.772Z,10.33
2018-04-20T17:11:51.386Z,8.53
2018-04-20T17:14:17.822Z,7.13
2018-04-20T17:16:45.012Z,9.00
2018-04-20T17:19:12.175Z,10.00
2018-04-20T17:21:39.339Z,7.67
2018-04-20T17:24:06.467Z,8.03
2018-04-20T17:26:37.131Z,10.90
2018-04-20T17:29:03.572Z,14.53
2018-04-20T17:31:29.980Z,7.40
2018-04-20T17:33:57.268Z,7.20
2018-04-20T17:36:23.707Z,10.20
2018-04-20T17:38:50.996Z,15.20
2018-04-20T17:41:18.778Z,22.20
2018-04-20T17:43:45.969Z,7.67
2018-04-20T17:46:12.418Z,9.23
2018-04-20T17:48:38.935Z,9.97
2018-04-20T17:51:05.351Z,8.77
2018-04-20T17:53:32.084Z,7.50
2018-04-20T17:55:58.540Z,7.87
2018-04-20T17:58:25.749Z,8.17
2018-04-20T18:00:52.366Z,8.63
2018-04-20T18:03:19.520Z,11.60
2018-04-20T18:05:46.746Z,8.40
2018-04-20T18:08:13.168Z,9.10
2018-04-20T18:10:40.399Z,8.77
2018-04-20T18:13:07.000Z,12.33
2018-04-20T18:15:34.191Z,9.00
2018-04-20T18:18:00.688Z,9.07
2018-04-20T18:20:27.197Z,9.50
2018-04-20T18:22:54.477Z,10.83
2018-04-20T18:25:20.958Z,10.57
2018-04-20T18:27:47.390Z,11.53
2018-04-20T18:30:13.887Z,10.73
2018-04-20T18:32:40.346Z,10.87
2018-04-20T18:35:07.294Z,10.80
2018-04-20T18:37:33.822Z,17.17
2018-04-20T18:40:00.356Z,11.57
2018-04-20T18:42:26.786Z,14.07
2018-04-20T18:44:53.603Z,11.33
2018-04-20T18:47:20.009Z,11.50
2018-04-20T18:49:46.512Z,12.80
2018-04-20T18:52:13.078Z,12.90
2018-04-20T18:54:39.596Z,13.30
2018-04-20T18:57:06.049Z,13.03
2018-04-20T18:59:33.104Z,14.83
2018-04-20T19:02:00.022Z,14.27
2018-04-20T19:04:27.918Z,13.17
2018-04-20T19:06:54.443Z,15.07
2018-04-20T19:09:21.946Z,16.10
2018-04-20T19:11:49.153Z,15.03
2018-04-20T19:14:15.687Z,17.00
2018-04-20T19:16:42.123Z,17.30
2018-04-20T19:19:09.514Z,18.30
2018-04-20T19:21:36.065Z,21.53
2018-04-20T19:24:03.344Z,23.70
2018-04-20T19:26:31.232Z,23.83
2018-04-20T19:28:58.219Z,32.10
2018-04-20T19:31:24.679Z,31.48
2018-04-20T19:33:51.165Z,34.95
2018-04-20T19:36:17.597Z,34.70
2018-04-20T19:38:44.034Z,29.77
2018-04-20T19:41:10.568Z,29.27
2018-04-20T19:43:38.067Z,26.02
2018-04-20T19:46:04.539Z,24.87
2018-04-20T19:48:31.001Z,22.33
2018-04-20T19:50:57.538Z,22.87
2018-04-20T19:53:23.967Z,23.65
2018-04-20T19:55:52.119Z,21.92
2018-04-20T19:58:18.577Z,21.90
2018-04-20T20:00:45.307Z,21.62
2018-04-20T20:03:11.756Z,22.23
2018-04-20T20:05:38.214Z,21.15
2018-04-20T20:08:04.718Z,18.80
2018-04-20T20:10:32.029Z,19.52
2018-04-20T20:12:59.184Z,17.60
2018-04-20T20:15:25.675Z,17.27
2018-04-20T20:17:52.118Z,16.37
2018-04-20T20:20:19.261Z,16.48
2018-04-20T20:22:45.727Z,14.98
2018-04-20T20:25:13.649Z,19.83
2018-04-20T20:27:40.831Z,15.07
2018-04-20T20:30:07.483Z,14.25
2018-04-20T20:32:34.041Z,13.00
2018-04-20T20:35:00.599Z,13.93
2018-04-20T20:37:27.893Z,13.40
2018-04-20T20:39:54.390Z,13.38
2018-04-20T20:42:21.103Z,14.50
2018-04-20T20:44:47.654Z,50.95
2018-04-20T20:47:15.602Z,47.20
2018-04-20T20:49:42.031Z,61.42
2018-04-20T20:52:08.554Z,57.83
2018-04-20T20:54:35.114Z,51.30
2018-04-20T20:57:01.562Z,36.50
2018-04-20T20:59:28.754Z,34.08
2018-04-20T21:01:55.265Z,53.72
2018-04-20T21:04:21.711Z,53.25
2018-04-20T21:06:48.183Z,42.97
2018-04-20T21:09:14.752Z,38.85
2018-04-20T21:11:42.631Z,36.83
2018-04-20T21:14:09.023Z,16.33
2018-04-20T21:16:35.577Z,16.52
2018-04-20T21:19:02.030Z,12.55
2018-04-20T21:21:28.472Z,11.45
2018-04-20T21:23:55.640Z,17.65
2018-04-20T21:26:22.874Z,31.70
2018-04-20T21:28:49.290Z,37.20
2018-04-20T21:31:15.812Z,28.20
2018-04-20T21:33:42.300Z,41.80
2018-04-20T21:36:09.578Z,17.77
2018-04-20T21:38:36.024Z,8.63
2018-04-20T21:41:03.210Z,10.20
2018-04-20T21:43:29.660Z,12.32
2018-04-20T21:45:56.216Z,10.27
2018-04-20T21:48:23.517Z,10.60
2018-04-20T21:50:50.052Z,9.57
2018-04-20T21:53:17.205Z,10.32
2018-04-20T21:55:44.367Z,9.13
2018-04-20T21:58:11.579Z,8.18
2018-04-20T22:00:37.999Z,9.32
2018-04-20T22:03:04.463Z,10.82
2018-04-20T22:05:31.639Z,10.25
2018-04-20T22:07:58.803Z,8.57
2018-04-20T22:10:26.101Z,8.80
2018-04-20T22:12:53.279Z,9.27
2018-04-20T22:15:19.692Z,19.23
2018-04-20T22:17:46.133Z,17.45
2018-04-20T22:20:12.642Z,8.77
2018-04-20T22:22:39.099Z,9.60
2018-04-20T22:25:06.268Z,8.77
2018-04-20T22:27:32.679Z,6.78
2018-04-20T22:29:59.132Z,8.82
2018-04-20T22:32:25.553Z,7.50
2018-04-20T22:34:51.979Z,10.82
2018-04-20T22:37:19.325Z,9.80
2018-04-20T22:39:45.826Z,7.82
2018-04-20T22:42:12.387Z,7.50
2018-04-20T22:44:38.794Z,7.28
2018-04-20T22:47:05.299Z,9.77
2018-04-20T22:49:31.744Z,8.30
2018-04-20T22:51:58.899Z,6.75
2018-04-20T22:54:25.931Z,9.45
2018-04-20T22:56:52.341Z,7.12
2018-04-20T22:59:18.764Z,6.80
2018-04-20T23:01:45.181Z,6.97
2018-04-20T23:04:11.623Z,7.60
2018-04-20T23:06:38.075Z,7.20
2018-04-20T23:09:05.552Z,6.68
2018-04-20T23:11:31.984Z,6.50
2018-04-20T23:13:58.443Z,7.12
2018-04-20T23:16:25.596Z,7.32
2018-04-20T23:18:51.977Z,6.90
2018-04-20T23:21:19.140Z,7.65
2018-04-20T23:23:46.333Z,7.35
2018-04-20T23:26:13.501Z,7.97
2018-04-20T23:28:40.667Z,8.75
2018-04-20T23:31:07.827Z,10.77
2018-04-20T23:33:34.247Z,8.18
2018-04-20T23:36:00.829Z,6.95
2018-04-20T23:38:27.214Z,7.90
2018-04-20T23:40:54.375Z,5.50
2018-04-20T23:43:20.916Z,6.07
2018-04-20T23:45:47.341Z,7.43
2018-04-20T23:48:13.759Z,6.47
2018-04-20T23:50:40.949Z,6.07
2018-04-20T23:53:07.365Z,5.93
2018-04-20T23:55:33.816Z,7.20
2018-04-20T23:58:00.305Z,6.22
